Time;durP1;ratioP1;P1;durP2;ratioP2;P2;SDS_P1;SDS_P2;PMS_P1;PMS_P2;Temp;Humidity;BMP_temperature;BMP_pressure;BME280_temperature;BME280_humidity;BME280_pressure;Samples;Min_cycle;Max_cycle;Signal;HPM_P1;HPM_P2
2021/05/02 00:00:22;;;;;;;44.87;40.67;;;7.70;99.90;;;;;;5092075;28;20656;-90
2021/05/02 00:02:49;;;;;;;41.97;37.93;;;7.70;99.90;;;;;;5087599;28;20656;-90
2021/05/02 00:05:17;;;;;;;47.90;43.50;;;7.70;99.90;;;;;;5091835;28;20628;-90
2021/05/02 00:07:44;;;;;;;44.33;40.13;;;7.70;99.90;;;;;;5089499;28;20636;-93
2021/05/02 00:10:13;;;;;;;47.07;42.67;;;7.60;99.90;;;;;;5093187;28;20648;-93
2021/05/02 00:12:40;;;;;;;44.07;39.97;;;7.60;99.90;;;;;;5091570;28;20646;-92
2021/05/02 00:15:08;;;;;;;44.63;40.40;;;7.50;99.90;;;;;;5097952;28;20648;-91
2021/05/02 00:17:37;;;;;;;46.20;42.10;;;7.60;99.90;;;;;;5095374;28;21177;-93
2021/05/02 00:20:05;;;;;;;45.23;40.93;;;7.50;99.90;;;;;;5098085;28;20654;-89
2021/05/02 00:22:33;;;;;;;49.03;44.27;;;7.50;99.90;;;;;;5095380;28;20643;-88
2021/05/02 00:25:00;;;;;;;47.00;42.10;;;7.50;99.90;;;;;;5093590;28;20616;-90
2021/05/02 00:27:28;;;;;;;46.67;42.07;;;7.50;99.90;;;;;;5090376;28;21146;-89
2021/05/02 00:29:54;;;;;;;45.07;40.57;;;7.50;99.90;;;;;;5092657;28;20666;-91
2021/05/02 00:32:22;;;;;;;45.50;41.23;;;7.50;99.90;;;;;;5089768;28;20656;-92
2021/05/02 00:34:50;;;;;;;47.23;42.07;;;7.50;99.90;;;;;;5086876;28;20631;-92
2021/05/02 00:37:17;;;;;;;44.20;40.07;;;7.50;99.90;;;;;;5085678;28;20706;-91
2021/05/02 00:39:44;;;;;;;44.37;40.23;;;7.40;99.90;;;;;;5093277;28;20665;-92
2021/05/02 00:42:20;;;;;;;41.93;37.93;;;7.40;99.90;;;;;;5097143;28;20628;-92
2021/05/02 00:44:49;;;;;;;42.77;38.97;;;7.40;99.90;;;;;;5095459;28;20681;-91
2021/05/02 00:47:17;;;;;;;40.10;36.40;;;7.40;99.90;;;;;;5089619;28;20659;-91
2021/05/02 00:49:52;;;;;;;41.70;38.00;;;7.30;99.90;;;;;;5087964;28;20663;-89
2021/05/02 00:52:30;;;;;;;38.20;34.30;;;7.40;99.90;;;;;;5095973;28;20793;-90
2021/05/02 00:55:04;;;;;;;38.17;34.87;;;7.30;99.90;;;;;;5099336;28;20634;-89
2021/05/02 00:57:34;;;;;;;37.47;34.00;;;7.30;99.90;;;;;;5094744;28;20644;-89
2021/05/02 01:00:05;;;;;;;38.37;34.53;;;7.30;99.90;;;;;;5097264;28;20715;-93
2021/05/02 01:02:34;;;;;;;38.40;35.00;;;7.30;99.90;;;;;;5101531;28;20722;-92
2021/05/02 01:05:05;;;;;;;37.07;33.57;;;7.30;99.90;;;;;;5090428;28;20636;-91
2021/05/02 01:07:36;;;;;;;40.43;36.57;;;7.20;99.90;;;;;;5089949;28;20659;-92
2021/05/02 01:10:05;;;;;;;40.37;36.67;;;7.30;99.90;;;;;;5093727;28;20704;-89
2021/05/02 01:12:32;;;;;;;39.77;36.13;;;7.20;99.90;;;;;;5088147;28;20609;-89
2021/05/02 01:15:01;;;;;;;39.73;36.03;;;7.20;99.90;;;;;;5087770;28;20635;-91
2021/05/02 01:17:33;;;;;;;38.93;35.33;;;7.20;99.90;;;;;;5091948;28;20601;-91
2021/05/02 01:20:04;;;;;;;41.00;37.20;;;7.20;99.90;;;;;;5111464;28;20647;-92
2021/05/02 01:22:33;;;;;;;40.70;37.30;;;7.30;99.90;;;;;;5111090;28;20597;-92
2021/05/02 01:25:01;;;;;;;38.37;34.90;;;7.20;99.90;;;;;;5109774;28;20631;-93
2021/05/02 01:27:29;;;;;;;37.83;34.43;;;7.20;99.90;;;;;;5097296;28;20657;-89
2021/05/02 01:29:57;;;;;;;40.70;37.37;;;7.20;99.90;;;;;;5107099;28;20684;-89
2021/05/02 01:32:26;;;;;;;35.93;32.80;;;7.30;99.90;;;;;;5108627;28;20689;-89
2021/05/02 01:34:56;;;;;;;38.03;34.53;;;7.20;99.90;;;;;;5107746;28;20624;-88
2021/05/02 01:37:23;;;;;;;39.50;36.20;;;7.10;99.90;;;;;;5106384;28;20614;-89
2021/05/02 01:39:52;;;;;;;38.83;35.43;;;7.10;99.90;;;;;;5106934;28;20644;-89
2021/05/02 01:42:21;;;;;;;39.00;35.30;;;7.10;99.90;;;;;;5106356;28;20620;-89
2021/05/02 01:44:48;;;;;;;41.67;38.00;;;7.10;99.90;;;;;;5109852;28;20667;-88
2021/05/02 01:47:17;;;;;;;41.50;37.90;;;7.20;99.90;;;;;;5111912;28;20597;-89
2021/05/02 01:49:49;;;;;;;44.70;40.50;;;7.10;99.90;;;;;;5113533;28;20679;-89
2021/05/02 01:52:17;;;;;;;41.63;38.10;;;7.00;99.90;;;;;;5109805;28;20637;-90
2021/05/02 01:54:44;;;;;;;43.17;39.37;;;7.10;99.90;;;;;;5095920;28;20635;-90
2021/05/02 01:57:18;;;;;;;41.00;37.40;;;7.10;99.90;;;;;;5090316;28;21131;-89
2021/05/02 01:59:50;;;;;;;39.00;35.50;;;7.10;99.90;;;;;;5089581;28;20656;-91
2021/05/02 02:02:16;;;;;;;40.10;36.63;;;7.00;99.90;;;;;;5091739;28;20625;-92
2021/05/02 02:04:46;;;;;;;40.37;36.93;;;7.00;99.90;;;;;;5096806;28;20667;-92
2021/05/02 02:07:14;;;;;;;41.60;37.80;;;7.00;99.90;;;;;;5092910;28;20632;-91
2021/05/02 02:09:41;;;;;;;40.27;36.33;;;7.00;99.90;;;;;;5100977;28;20647;-91
2021/05/02 02:12:09;;;;;;;39.97;36.37;;;7.00;99.90;;;;;;5094021;28;20632;-91
2021/05/02 02:14:37;;;;;;;40.10;36.47;;;7.00;99.90;;;;;;5101025;28;20616;-91
2021/05/02 02:17:05;;;;;;;41.93;38.33;;;7.00;99.90;;;;;;5095087;28;20644;-91
2021/05/02 02:19:32;;;;;;;41.87;38.00;;;7.00;99.90;;;;;;5092975;28;20659;-89
2021/05/02 02:21:59;;;;;;;40.87;37.37;;;6.90;99.90;;;;;;5096599;28;20635;-90
2021/05/02 02:24:41;;;;;;;40.50;36.77;;;6.90;99.90;;;;;;5093974;28;20656;-90
2021/05/02 02:27:21;;;;;;;41.83;38.20;;;7.00;99.90;;;;;;5086833;28;20592;-90
2021/05/02 02:29:49;;;;;;;43.43;39.43;;;7.10;99.90;;;;;;5093427;28;20668;-88
2021/05/02 02:32:19;;;;;;;41.90;37.97;;;7.00;99.90;;;;;;5094793;28;20627;-89
2021/05/02 02:34:47;;;;;;;43.17;39.13;;;7.10;99.90;;;;;;5094945;28;20641;-90
2021/05/02 02:37:15;;;;;;;44.60;40.20;;;7.10;99.90;;;;;;5103827;28;20631;-90
2021/05/02 02:39:46;;;;;;;44.00;40.00;;;7.10;99.90;;;;;;5095891;28;20668;-90
2021/05/02 02:42:14;;;;;;;41.80;38.10;;;7.10;99.90;;;;;;5096244;28;20616;-91
2021/05/02 02:44:46;;;;;;;42.60;38.30;;;7.10;99.90;;;;;;5098434;28;20656;-91
2021/05/02 02:47:17;;;;;;;43.93;39.77;;;7.10;99.90;;;;;;5099819;28;20643;-91
2021/05/02 02:49:47;;;;;;;45.13;40.73;;;7.00;99.90;;;;;;5095784;28;21229;-90
2021/05/02 02:52:18;;;;;;;44.50;40.23;;;7.00;99.90;;;;;;5096707;28;21171;-91
2021/05/02 02:54:48;;;;;;;44.70;40.33;;;7.00;99.90;;;;;;5094384;28;20648;-90
2021/05/02 02:57:20;;;;;;;46.90;42.43;;;7.00;99.90;;;;;;5098666;28;20624;-90
2021/05/02 02:59:52;;;;;;;44.30;40.20;;;7.00;99.90;;;;;;5115197;28;20648;-90
2021/05/02 03:02:22;;;;;;;43.90;40.00;;;7.00;99.90;;;;;;5110812;28;21238;-91
2021/05/02 03:04:51;;;;;;;43.67;39.60;;;7.10;99.90;;;;;;5098230;28;20695;-90
2021/05/02 03:07:19;;;;;;;47.83;43.10;;;7.10;99.90;;;;;;5094517;28;20717;-90
2021/05/02 03:09:49;;;;;;;46.20;42.00;;;7.10;99.90;;;;;;5095946;28;20696;-91
2021/05/02 03:12:19;;;;;;;46.20;41.47;;;7.10;99.90;;;;;;5094401;28;20628;-91
2021/05/02 03:14:48;;;;;;;47.20;42.80;;;7.10;99.90;;;;;;5096926;28;20627;-91
2021/05/02 03:17:18;;;;;;;47.07;42.40;;;7.10;99.90;;;;;;5089039;28;21194;-90
2021/05/02 03:19:51;;;;;;;45.03;40.77;;;7.00;99.90;;;;;;5097515;28;20647;-90
2021/05/02 03:22:29;;;;;;;45.33;41.10;;;7.10;99.90;;;;;;5090191;28;21151;-90
2021/05/02 03:24:59;;;;;;;42.23;38.50;;;7.10;99.90;;;;;;5090753;28;20656;-91
2021/05/02 03:27:30;;;;;;;46.13;42.13;;;7.00;99.90;;;;;;5092419;28;20632;-91
2021/05/02 03:30:05;;;;;;;44.00;40.00;;;7.10;99.90;;;;;;5092750;28;20668;-90
2021/05/02 03:32:34;;;;;;;42.63;38.57;;;7.00;99.90;;;;;;5097057;28;20662;-89
2021/05/02 03:35:04;;;;;;;41.40;37.80;;;7.10;99.90;;;;;;5091673;28;20966;-88
2021/05/02 03:37:35;;;;;;;43.53;39.60;;;7.00;99.90;;;;;;5089343;28;20630;-89
2021/05/02 03:40:03;;;;;;;44.63;40.57;;;7.10;99.90;;;;;;5095376;28;20721;-89
2021/05/02 03:42:36;;;;;;;41.57;37.97;;;7.10;99.90;;;;;;5090710;28;20665;-92
2021/05/02 03:45:03;;;;;;;40.77;37.33;;;7.10;99.90;;;;;;5092017;28;20671;-92
2021/05/02 03:47:30;;;;;;;42.87;39.07;;;7.00;99.90;;;;;;5094749;28;20618;-91
2021/05/02 03:49:56;;;;;;;43.37;39.57;;;7.00;99.90;;;;;;5092027;28;20739;-93
2021/05/02 03:52:30;;;;;;;44.87;40.77;;;7.00;99.90;;;;;;5092606;28;20624;-92
2021/05/02 03:55:01;;;;;;;42.20;38.47;;;7.00;99.90;;;;;;5094066;28;20619;-92
2021/05/02 03:57:32;;;;;;;42.93;39.20;;;7.10;99.90;;;;;;5093125;28;20763;-91
2021/05/02 03:59:58;;;;;;;43.23;39.43;;;7.00;99.90;;;;;;5093871;28;20656;-89
2021/05/02 04:02:25;;;;;;;40.90;37.27;;;7.00;99.90;;;;;;5087547;28;20635;-89
2021/05/02 04:04:51;;;;;;;40.83;37.30;;;6.90;99.90;;;;;;5092075;28;20999;-91
2021/05/02 04:07:17;;;;;;;41.70;38.03;;;7.10;99.90;;;;;;5090404;28;20643;-92
2021/05/02 04:09:46;;;;;;;41.47;37.97;;;7.10;99.90;;;;;;5091609;28;20671;-90
2021/05/02 04:12:13;;;;;;;41.43;37.60;;;7.00;99.90;;;;;;5094396;28;21044;-92
2021/05/02 04:14:41;;;;;;;41.80;38.20;;;7.00;99.90;;;;;;5095913;28;20680;-91
2021/05/02 04:17:10;;;;;;;40.10;36.80;;;7.00;99.90;;;;;;5097823;28;20620;-92
2021/05/02 04:19:38;;;;;;;43.03;39.33;;;7.10;99.90;;;;;;5095947;28;20697;-92
2021/05/02 04:22:06;;;;;;;40.20;36.87;;;7.10;99.90;;;;;;5099596;28;20624;-93
2021/05/02 04:24:33;;;;;;;41.10;37.67;;;7.00;99.90;;;;;;5091969;28;20660;-90
2021/05/02 04:27:03;;;;;;;44.13;40.20;;;7.10;99.90;;;;;;5095334;28;20631;-92
2021/05/02 04:29:33;;;;;;;39.97;36.57;;;7.10;99.90;;;;;;5089667;28;20667;-92
2021/05/02 04:32:00;;;;;;;40.63;37.33;;;7.10;99.90;;;;;;5097049;28;20643;-90
2021/05/02 04:34:29;;;;;;;41.77;38.30;;;7.10;99.90;;;;;;5089964;28;20635;-90
2021/05/02 04:36:57;;;;;;;41.30;37.83;;;7.10;99.90;;;;;;5092152;28;20624;-92
2021/05/02 04:39:24;;;;;;;41.47;37.83;;;7.10;99.90;;;;;;5088792;28;20760;-91
2021/05/02 04:41:52;;;;;;;41.33;37.83;;;7.20;99.90;;;;;;5099549;28;20620;-92
2021/05/02 04:44:20;;;;;;;40.83;37.70;;;7.10;99.90;;;;;;5085659;28;20663;-90
2021/05/02 04:46:48;;;;;;;41.13;37.73;;;7.10;99.90;;;;;;5092432;28;20609;-90
2021/05/02 04:49:22;;;;;;;41.10;37.80;;;7.10;99.90;;;;;;5095805;28;20607;-92
2021/05/02 04:51:49;;;;;;;40.80;37.40;;;7.10;99.90;;;;;;5089278;28;20639;-93
2021/05/02 04:54:16;;;;;;;42.53;39.03;;;7.10;99.90;;;;;;5096158;28;20608;-91
2021/05/02 04:56:43;;;;;;;40.33;36.83;;;7.10;99.90;;;;;;5089002;28;20592;-90
2021/05/02 04:59:11;;;;;;;41.77;38.17;;;7.20;99.90;;;;;;5092597;28;20620;-89
2021/05/02 05:01:44;;;;;;;41.23;37.90;;;7.30;99.90;;;;;;5092193;28;20609;-91
2021/05/02 05:04:13;;;;;;;42.07;38.43;;;7.30;99.90;;;;;;5096760;28;21209;-91
2021/05/02 05:06:49;;;;;;;41.50;38.00;;;7.40;99.90;;;;;;5098282;28;20636;-91
2021/05/02 05:09:16;;;;;;;43.40;39.73;;;7.40;99.90;;;;;;5083823;28;20720;-90
2021/05/02 05:11:42;;;;;;;43.37;39.67;;;7.40;99.90;;;;;;5089474;28;20648;-91
2021/05/02 05:14:09;;;;;;;40.73;37.43;;;7.50;99.90;;;;;;5086063;28;20631;-91
2021/05/02 05:16:37;;;;;;;37.47;34.43;;;7.50;99.90;;;;;;5094707;28;20673;-91
2021/05/02 05:19:05;;;;;;;37.73;34.43;;;7.50;99.90;;;;;;5094053;28;20646;-91
2021/05/02 05:21:31;;;;;;;38.43;35.53;;;7.50;99.90;;;;;;5096544;28;20660;-91
2021/05/02 05:23:58;;;;;;;38.27;35.27;;;7.40;99.90;;;;;;5088221;28;20663;-91
2021/05/02 05:26:28;;;;;;;39.43;36.33;;;7.40;99.90;;;;;;5091559;28;20639;-89
2021/05/02 05:28:55;;;;;;;39.00;35.70;;;7.50;99.90;;;;;;5088402;28;20656;-89
2021/05/02 05:31:22;;;;;;;36.07;33.10;;;7.60;99.90;;;;;;5088276;28;20649;-89
2021/05/02 05:33:49;;;;;;;38.37;35.33;;;7.60;99.90;;;;;;5088172;28;21028;-90
2021/05/02 05:36:16;;;;;;;36.60;33.70;;;7.60;99.90;;;;;;5091613;28;20656;-89
2021/05/02 05:38:44;;;;;;;38.30;35.20;;;7.60;99.90;;;;;;5091875;28;20662;-91
2021/05/02 05:41:10;;;;;;;37.47;34.23;;;7.60;99.90;;;;;;5100483;28;20722;-90
2021/05/02 05:43:37;;;;;;;37.13;34.33;;;7.60;99.90;;;;;;5098618;28;20652;-93
2021/05/02 05:46:04;;;;;;;37.03;33.97;;;7.70;99.90;;;;;;5105028;28;20706;-93
2021/05/02 05:48:32;;;;;;;34.63;31.80;;;7.70;99.90;;;;;;5102664;28;20664;-91
2021/05/02 05:50:59;;;;;;;35.27;32.57;;;7.80;99.90;;;;;;5100104;28;21177;-92
2021/05/02 05:53:26;;;;;;;35.00;32.30;;;7.90;99.90;;;;;;5099191;28;20768;-91
2021/05/02 05:55:56;;;;;;;32.87;30.20;;;8.00;99.90;;;;;;5100524;28;20643;-94
2021/05/02 05:58:23;;;;;;;33.60;30.90;;;8.00;99.90;;;;;;5109185;28;20628;-93
2021/05/02 06:00:51;;;;;;;32.60;29.90;;;8.10;99.90;;;;;;5107425;28;20636;-93
2021/05/02 06:03:17;;;;;;;31.80;29.13;;;8.20;99.90;;;;;;5104154;28;20671;-92
2021/05/02 06:05:44;;;;;;;30.73;28.33;;;8.10;99.90;;;;;;5100838;28;20635;-94
2021/05/02 06:08:23;;;;;;;32.23;29.40;;;8.20;99.90;;;;;;5093213;28;21021;-92
2021/05/02 06:10:52;;;;;;;33.77;30.97;;;8.20;99.90;;;;;;5096541;28;20631;-92
2021/05/02 06:13:18;;;;;;;36.63;33.47;;;8.20;99.90;;;;;;5101958;28;20752;-95
2021/05/02 06:15:45;;;;;;;34.30;31.40;;;8.30;99.90;;;;;;5100498;28;21063;-93
2021/05/02 06:18:12;;;;;;;29.70;27.17;;;8.40;99.90;;;;;;5098503;28;20679;-95
2021/05/02 06:20:41;;;;;;;29.43;26.97;;;8.50;99.90;;;;;;5099565;28;20635;-92
2021/05/02 06:23:11;;;;;;;28.70;26.60;;;8.50;99.90;;;;;;5091107;28;20620;-93
2021/05/02 06:25:38;;;;;;;30.30;27.87;;;8.50;99.90;;;;;;5097623;28;20656;-94
2021/05/02 06:28:06;;;;;;;28.53;26.30;;;8.60;99.90;;;;;;5099969;28;20660;-91
2021/05/02 06:30:33;;;;;;;28.93;26.53;;;8.70;99.90;;;;;;5097530;28;20640;-91
2021/05/02 06:33:03;;;;;;;27.70;25.40;;;8.60;99.90;;;;;;5101259;28;20631;-94
2021/05/02 06:35:30;;;;;;;28.60;26.17;;;8.60;99.90;;;;;;5097774;28;20665;-92
2021/05/02 06:37:57;;;;;;;28.80;26.20;;;8.70;99.90;;;;;;5098074;28;20643;-95
2021/05/02 06:40:59;;;;;;;29.03;26.53;;;8.70;99.90;;;;;;5104905;28;20635;-94
2021/05/02 06:43:48;;;;;;;27.23;24.90;;;8.70;99.90;;;;;;5098707;28;20667;-94
2021/05/02 06:46:28;;;;;;;28.57;26.27;;;8.60;99.90;;;;;;5102596;28;20650;-94
2021/05/02 06:49:11;;;;;;;29.60;27.20;;;8.60;99.90;;;;;;5104203;28;20643;-93
2021/05/02 06:51:38;;;;;;;30.87;28.17;;;8.70;99.90;;;;;;5111961;28;20642;-93
2021/05/02 06:54:06;;;;;;;29.40;27.13;;;8.60;99.90;;;;;;5119529;28;20620;-93
2021/05/02 06:56:34;;;;;;;27.90;25.80;;;8.70;99.90;;;;;;5124583;28;20620;-94
2021/05/02 06:59:03;;;;;;;29.20;26.90;;;8.70;99.90;;;;;;5121036;28;20632;-92
2021/05/02 07:01:32;;;;;;;28.57;26.27;;;8.60;99.90;;;;;;5122724;27;20650;-91
2021/05/02 07:03:59;;;;;;;27.70;25.50;;;8.70;99.90;;;;;;5101887;28;20766;-91
2021/05/02 07:06:26;;;;;;;26.20;24.10;;;8.80;99.90;;;;;;5104072;28;20999;-90
2021/05/02 07:08:59;;;;;;;26.70;24.50;;;9.10;99.90;;;;;;5098522;28;20684;-92
2021/05/02 07:11:29;;;;;;;26.27;23.90;;;9.20;99.90;;;;;;5100129;28;20650;-94
2021/05/02 07:14:06;;;;;;;24.67;22.67;;;9.40;99.90;;;;;;5098678;28;20616;-92
2021/05/02 07:16:37;;;;;;;22.63;20.73;;;9.60;99.90;;;;;;5093634;28;20639;-91
2021/05/02 07:19:05;;;;;;;22.83;20.93;;;9.70;99.90;;;;;;5097846;28;20704;-92
2021/05/02 07:21:31;;;;;;;24.63;22.53;;;9.60;99.90;;;;;;5107758;28;20616;-92
2021/05/02 07:23:57;;;;;;;22.07;20.33;;;9.70;99.90;;;;;;5101563;28;20656;-91
2021/05/02 07:26:34;;;;;;;23.43;21.33;;;9.60;99.90;;;;;;5102546;28;20719;-93
2021/05/02 07:29:01;;;;;;;24.07;22.07;;;9.60;99.90;;;;;;5101214;28;20698;-93
2021/05/02 07:31:31;;;;;;;26.77;24.47;;;9.50;99.90;;;;;;5103957;28;21020;-93
2021/05/02 07:34:23;;;;;;;21.63;19.93;;;9.40;99.90;;;;;;5104166;28;20739;-91
2021/05/02 07:36:50;;;;;;;23.20;21.40;;;9.50;99.90;;;;;;5113569;28;20634;-92
2021/05/02 07:39:20;;;;;;;21.70;20.00;;;9.60;99.90;;;;;;5111882;28;21214;-91
2021/05/02 07:41:47;;;;;;;19.47;17.93;;;9.80;99.90;;;;;;5110576;28;20633;-92
2021/05/02 07:44:18;;;;;;;21.20;19.30;;;9.90;99.90;;;;;;5111508;28;20782;-91
2021/05/02 07:46:55;;;;;;;19.97;18.47;;;9.90;99.90;;;;;;5112958;28;20999;-92
2021/05/02 07:49:24;;;;;;;19.07;17.63;;;10.10;99.90;;;;;;5109574;28;20619;-91
2021/05/02 07:51:50;;;;;;;19.50;18.00;;;10.00;99.90;;;;;;5110377;28;20608;-92
2021/05/02 07:54:17;;;;;;;19.80;18.13;;;10.30;99.90;;;;;;5106721;28;20639;-90
2021/05/02 07:56:43;;;;;;;19.83;18.13;;;10.20;99.90;;;;;;5109757;28;20745;-87
2021/05/02 07:59:09;;;;;;;14.40;13.10;;;10.50;99.90;;;;;;5110381;28;20659;-86
2021/05/02 08:01:36;;;;;;;15.13;12.90;;;10.30;99.90;;;;;;5106910;28;20628;-88
2021/05/02 08:04:03;;;;;;;16.10;14.50;;;10.40;99.90;;;;;;5105140;28;22669;-87
2021/05/02 08:06:29;;;;;;;14.97;13.50;;;10.80;99.90;;;;;;5104559;28;20684;-87
2021/05/02 08:08:56;;;;;;;15.27;13.73;;;11.20;99.90;;;;;;5111515;28;20625;-87
2021/05/02 08:11:22;;;;;;;14.30;12.80;;;11.50;99.90;;;;;;5108395;28;20644;-87
2021/05/02 08:13:48;;;;;;;16.50;13.10;;;11.10;99.90;;;;;;5108617;28;20670;-89
2021/05/02 08:16:16;;;;;;;15.00;13.50;;;11.00;99.90;;;;;;5107817;28;20692;-87
2021/05/02 08:18:42;;;;;;;15.30;13.70;;;11.00;99.90;;;;;;5103740;28;20623;-86
2021/05/02 08:21:10;;;;;;;14.43;13.00;;;11.10;99.90;;;;;;5106150;28;20627;-87
2021/05/02 08:23:37;;;;;;;15.90;14.40;;;10.90;99.90;;;;;;5102087;28;20684;-88
2021/05/02 08:26:03;;;;;;;14.90;13.47;;;10.80;99.90;;;;;;5099635;28;20684;-88
2021/05/02 08:28:29;;;;;;;13.67;12.23;;;10.70;99.90;;;;;;5100688;28;20681;-87
2021/05/02 08:30:57;;;;;;;13.27;12.13;;;10.90;99.90;;;;;;5099302;28;20660;-86
2021/05/02 08:33:23;;;;;;;14.87;13.57;;;10.70;99.90;;;;;;5099423;28;21249;-86
2021/05/02 08:35:50;;;;;;;16.47;14.77;;;10.70;99.90;;;;;;5095240;28;21018;-87
2021/05/02 08:38:17;;;;;;;16.33;14.87;;;10.90;99.90;;;;;;5100658;28;20630;-86
2021/05/02 08:40:43;;;;;;;14.77;13.40;;;11.00;99.90;;;;;;5103247;28;20656;-86
2021/05/02 08:43:10;;;;;;;15.37;13.97;;;11.10;99.90;;;;;;5096643;28;20635;-86
2021/05/02 08:45:39;;;;;;;17.60;16.10;;;11.10;99.90;;;;;;5107080;28;20647;-89
2021/05/02 08:48:06;;;;;;;15.30;13.17;;;11.30;99.90;;;;;;5104140;28;20628;-89
2021/05/02 08:50:32;;;;;;;17.93;16.10;;;11.20;99.90;;;;;;5104127;28;20719;-89
2021/05/02 08:52:58;;;;;;;16.67;15.13;;;11.20;99.90;;;;;;5104045;28;20628;-88
2021/05/02 08:55:26;;;;;;;17.77;16.37;;;11.40;99.90;;;;;;5103813;28;20858;-88
2021/05/02 08:57:52;;;;;;;17.20;15.60;;;11.40;99.90;;;;;;5102991;28;20638;-87
2021/05/02 09:00:20;;;;;;;16.30;14.87;;;11.50;99.90;;;;;;5104632;28;20640;-87
2021/05/02 09:02:54;;;;;;;16.30;15.00;;;11.80;99.90;;;;;;5099491;28;20705;-87
2021/05/02 09:05:21;;;;;;;16.77;15.47;;;11.80;99.90;;;;;;5102903;28;20655;-87
2021/05/02 09:07:47;;;;;;;13.97;12.57;;;11.90;99.90;;;;;;5101613;28;20622;-88
2021/05/02 09:10:18;;;;;;;14.70;13.40;;;11.90;99.90;;;;;;5094488;28;20639;-88
2021/05/02 09:13:00;;;;;;;14.10;12.70;;;11.70;99.90;;;;;;5092233;28;20651;-91
2021/05/02 09:15:26;;;;;;;14.33;12.60;;;11.90;99.90;;;;;;5085796;28;20620;-90
2021/05/02 09:18:00;;;;;;;15.67;14.43;;;12.10;99.90;;;;;;5090724;28;20643;-91
2021/05/02 09:20:49;;;;;;;13.63;12.33;;;12.30;99.60;;;;;;5097121;28;20648;-91
2021/05/02 09:23:19;;;;;;;13.40;12.00;;;12.70;99.90;;;;;;5099266;28;21073;-90
2021/05/02 09:25:47;;;;;;;14.77;13.17;;;12.80;98.90;;;;;;5098041;27;20646;-89
2021/05/02 09:28:15;;;;;;;14.20;12.90;;;13.00;99.90;;;;;;5097789;27;20988;-92
2021/05/02 09:30:41;;;;;;;13.27;12.10;;;12.80;97.50;;;;;;5097011;28;20683;-90
2021/05/02 09:33:26;;;;;;;15.23;13.63;;;12.20;97.10;;;;;;5091868;28;21191;-91
2021/05/02 09:35:55;;;;;;;15.60;14.23;;;12.10;98.50;;;;;;5095117;28;21189;-90
2021/05/02 09:38:22;;;;;;;14.67;13.27;;;11.80;98.50;;;;;;5093710;28;20642;-90
2021/05/02 09:40:50;;;;;;;15.73;14.23;;;11.70;98.80;;;;;;5089213;28;20660;-91
2021/05/02 09:43:31;;;;;;;15.63;14.43;;;11.70;98.60;;;;;;5089117;27;20681;-90
2021/05/02 09:46:34;;;;;;;16.70;15.10;;;11.60;99.60;;;;;;5092250;28;20968;-90
2021/05/02 09:49:16;;;;;;;16.80;15.50;;;12.20;98.70;;;;;;5086854;28;20628;-91
2021/05/02 09:51:48;;;;;;;17.87;16.17;;;12.40;99.10;;;;;;5085335;28;20674;-91
2021/05/02 09:54:16;;;;;;;14.80;13.50;;;12.20;98.70;;;;;;5089868;28;20624;-90
2021/05/02 09:56:46;;;;;;;16.77;13.53;;;12.50;97.30;;;;;;5091913;28;21040;-92
2021/05/02 09:59:49;;;;;;;17.13;15.73;;;12.60;96.10;;;;;;5085166;28;20674;-90
2021/05/02 10:02:24;;;;;;;15.90;14.60;;;12.60;95.90;;;;;;5087783;28;20655;-90
2021/05/02 10:04:54;;;;;;;18.17;16.57;;;12.30;99.70;;;;;;5086234;28;20662;-92
2021/05/02 10:07:22;;;;;;;15.77;14.17;;;11.90;98.10;;;;;;5090526;28;20623;-90
2021/05/02 10:09:58;;;;;;;16.70;15.30;;;11.70;97.30;;;;;;5088748;28;20937;-91
2021/05/02 10:12:27;;;;;;;18.53;16.93;;;11.50;98.70;;;;;;5088314;28;20978;-90
2021/05/02 10:14:55;;;;;;;19.27;17.67;;;11.40;99.90;;;;;;5094598;28;20666;-91
2021/05/02 10:17:22;;;;;;;17.47;16.07;;;11.30;99.90;;;;;;5090388;27;20723;-92
2021/05/02 10:20:03;;;;;;;18.90;17.27;;;11.40;99.90;;;;;;5092657;28;20627;-90
2021/05/02 10:22:30;;;;;;;20.03;18.27;;;11.40;99.90;;;;;;5091887;28;21101;-92
2021/05/02 10:24:59;;;;;;;19.43;17.73;;;11.50;99.90;;;;;;5093264;28;20660;-89
2021/05/02 10:27:26;;;;;;;18.87;17.07;;;11.60;99.90;;;;;;5087802;28;20615;-90
2021/05/02 10:30:01;;;;;;;18.90;17.10;;;11.70;99.90;;;;;;5088131;28;20987;-88
2021/05/02 10:32:37;;;;;;;19.00;17.30;;;11.70;99.90;;;;;;5090775;28;20611;-90
2021/05/02 10:35:08;;;;;;;16.73;15.53;;;12.50;99.70;;;;;;5093750;28;21014;-93
2021/05/02 10:37:38;;;;;;;17.40;15.90;;;13.00;97.60;;;;;;5092501;28;20726;-93
2021/05/02 10:40:11;;;;;;;16.63;15.33;;;13.20;96.30;;;;;;5089709;28;21093;-92
2021/05/02 10:42:42;;;;;;;14.87;13.47;;;13.40;96.00;;;;;;5089092;28;20687;-92
2021/05/02 10:45:47;;;;;;;17.23;14.27;;;13.20;94.80;;;;;;5085626;28;20798;-92
2021/05/02 10:48:37;;;;;;;13.90;12.80;;;13.00;93.20;;;;;;5007935;28;20711;-91
2021/05/02 10:51:19;;;;;;;14.37;12.87;;;13.00;94.20;;;;;;5013433;28;20716;-90
2021/05/02 10:54:05;;;;;;;15.13;13.63;;;12.70;94.50;;;;;;5067940;28;20628;-92
2021/05/02 10:56:43;;;;;;;13.40;12.20;;;12.90;94.70;;;;;;5093312;28;20600;-91
2021/05/02 10:59:10;;;;;;;14.17;12.80;;;13.00;94.60;;;;;;5089345;28;20611;-92
2021/05/02 11:01:38;;;;;;;14.90;13.60;;;13.20;94.10;;;;;;5095790;28;21039;-92
2021/05/02 11:04:07;;;;;;;15.63;14.27;;;14.10;92.60;;;;;;5089828;28;20635;-91
2021/05/02 11:06:56;;;;;;;15.53;13.93;;;14.60;91.40;;;;;;5088122;28;20697;-92
2021/05/02 11:09:29;;;;;;;15.07;13.80;;;15.00;95.10;;;;;;5084055;28;20636;-92
2021/05/02 11:12:03;;;;;;;15.43;14.03;;;15.40;94.00;;;;;;5089699;28;20683;-93
2021/05/02 11:14:37;;;;;;;15.03;13.60;;;16.00;93.20;;;;;;5088112;28;20653;-93
2021/05/02 11:17:33;;;;;;;15.00;13.70;;;16.60;87.40;;;;;;5098544;28;20607;-92
2021/05/02 11:20:03;;;;;;;14.33;13.13;;;17.00;91.80;;;;;;5104608;28;20632;-92
2021/05/02 11:22:30;;;;;;;16.90;15.50;;;16.60;85.10;;;;;;5103018;28;20637;-92
2021/05/02 11:25:06;;;;;;;15.83;14.60;;;16.50;87.00;;;;;;5088369;28;21250;-92
2021/05/02 11:28:05;;;;;;;17.33;15.83;;;15.10;88.80;;;;;;5088113;28;20659;-92
2021/05/02 11:30:32;;;;;;;16.50;15.00;;;14.80;92.40;;;;;;5080793;28;20772;-92
2021/05/02 11:33:01;;;;;;;15.63;14.43;;;14.10;92.20;;;;;;5086055;28;21206;-91
2021/05/02 11:35:56;;;;;;;15.60;14.40;;;13.80;95.10;;;;;;5082744;28;21072;-91
2021/05/02 11:38:41;;;;;;;16.90;15.50;;;13.70;96.60;;;;;;5088642;28;20620;-91
2021/05/02 11:41:10;;;;;;;16.10;14.90;;;13.50;96.90;;;;;;5084617;28;20728;-91
2021/05/02 11:43:39;;;;;;;16.50;15.23;;;13.00;96.00;;;;;;5084173;28;20629;-91
2021/05/02 11:46:17;;;;;;;18.43;16.77;;;12.90;96.70;;;;;;5091531;28;20635;-90
2021/05/02 11:48:46;;;;;;;15.93;14.63;;;12.80;96.30;;;;;;5086805;28;20627;-91
2021/05/02 11:51:25;;;;;;;18.33;16.80;;;12.20;96.90;;;;;;5084940;28;20648;-94
2021/05/02 11:53:55;;;;;;;22.87;21.00;;;10.60;99.90;;;;;;5103629;28;20615;-94
2021/05/02 11:56:30;;;;;;;28.17;25.97;;;8.80;99.90;;;;;;5097477;28;21020;-95
2021/05/02 11:59:05;;;;;;;31.07;28.53;;;8.50;99.90;;;;;;5093152;28;20632;-94
2021/05/02 12:01:34;;;;;;;31.70;29.30;;;8.50;99.90;;;;;;5091142;28;21128;-92
2021/05/02 12:04:06;;;;;;;37.07;34.27;;;8.50;99.90;;;;;;5085840;28;21301;-91
2021/05/02 12:06:35;;;;;;;42.37;38.97;;;8.80;99.90;;;;;;5083219;28;20621;-93
2021/05/02 12:09:03;;;;;;;33.90;31.50;;;9.90;99.90;;;;;;5085335;28;20620;-92
2021/05/02 12:11:32;;;;;;;24.37;22.43;;;11.10;99.90;;;;;;5085913;28;21001;-92
2021/05/02 12:13:58;;;;;;;23.40;21.60;;;11.50;99.90;;;;;;5088819;28;20665;-93
2021/05/02 12:16:26;;;;;;;21.43;19.73;;;12.20;99.90;;;;;;5087790;28;20620;-91
2021/05/02 12:18:56;;;;;;;21.17;19.57;;;13.20;99.90;;;;;;5088987;28;20697;-91
2021/05/02 12:21:28;;;;;;;19.80;18.20;;;13.70;99.90;;;;;;5093639;28;20636;-91
2021/05/02 12:24:04;;;;;;;15.87;14.73;;;13.70;99.90;;;;;;5087972;28;20758;-91
2021/05/02 12:26:31;;;;;;;16.60;15.30;;;13.20;99.90;;;;;;5088714;28;20626;-90
2021/05/02 12:28:58;;;;;;;14.93;13.83;;;13.60;99.90;;;;;;5090854;28;20669;-90
2021/05/02 12:31:27;;;;;;;13.93;12.87;;;13.70;99.90;;;;;;5080664;28;20655;-92
2021/05/02 12:33:53;;;;;;;12.67;11.77;;;13.80;99.90;;;;;;5084029;28;20643;-90
2021/05/02 12:36:20;;;;;;;11.63;10.73;;;13.50;99.90;;;;;;5087458;28;21621;-90
2021/05/02 12:38:59;;;;;;;12.40;11.50;;;12.90;99.90;;;;;;5087908;28;20624;-89
2021/05/02 12:41:27;;;;;;;14.17;13.00;;;12.00;99.90;;;;;;5084486;28;20670;-89
2021/05/02 12:43:55;;;;;;;12.67;11.67;;;11.60;99.90;;;;;;5084716;28;20679;-88
2021/05/02 12:46:38;;;;;;;12.83;11.93;;;11.10;99.90;;;;;;5086276;28;20632;-89
2021/05/02 12:49:13;;;;;;;14.10;13.10;;;10.70;99.90;;;;;;5083492;28;20666;-89